TimeAST,TemperatureF,Dew PointF,Humidity,Sea Level PressureIn,VisibilityMPH,Wind Direction,Wind SpeedMPH,Gust SpeedMPH,PrecipitationIn,Events,Conditions,WindDirDegrees,DateUTC
12:00 AM,78.8,73.4,83,29.98,6.2,East,9.2,-,N/A,,Partly Cloudy,90,2013-03-05 04:00:00
1:00 AM,77.0,75.2,94,29.95,6.2,ENE,5.8,-,N/A,,Scattered Clouds,70,2013-03-05 05:00:00
2:00 AM,77,74,90,29.95,11,ENE,6.9,,,,Widespread Dust,60,2013-03-05 06:00:00
2:00 AM,77.0,75.2,94,29.95,6.2,ENE,6.9,-,N/A,,Scattered Clouds,60,2013-03-05 06:00:00
3:00 AM,77.0,73.4,89,29.95,6.2,NE,6.9,-,N/A,,Partly Cloudy,50,2013-03-05 07:00:00
4:00 AM,77.0,73.4,89,29.95,6.2,ENE,3.5,-,N/A,,Mostly Cloudy,60,2013-03-05 08:00:00
5:00 AM,76,74,91,29.96,12,ENE,3.5,,,,Widespread Dust,60,2013-03-05 09:00:00
5:00 AM,77.0,73.4,89,29.95,6.2,ENE,3.5,-,N/A,,Scattered Clouds,60,2013-03-05 09:00:00
6:00 AM,77.0,73.4,89,29.95,6.2,ENE,5.8,-,N/A,,Mostly Cloudy,60,2013-03-05 10:00:00
7:00 AM,77.0,73.4,89,29.98,6.2,East,4.6,-,N/A,,Mostly Cloudy,80,2013-03-05 11:00:00
8:00 AM,81,74,75,30.01,11,ENE,8.1,,,,Widespread Dust,70,2013-03-05 12:00:00
8:00 AM,80.6,75.2,84,30.01,6.2,ENE,8.1,-,N/A,,Scattered Clouds,70,2013-03-05 12:00:00
9:00 AM,84.2,75.2,74,30.01,6.2,ESE,16.1,-,N/A,,Mostly Cloudy,110,2013-03-05 13:00:00
10:00 AM,84.2,75.2,74,30.01,6.2,SE,16.1,-,N/A,,Mostly Cloudy,130,2013-03-05 14:00:00
11:00 AM,84,73,62,30.03,11,ESE,15.0,,,,Widespread Dust,120,2013-03-05 15:00:00
11:00 AM,84.2,73.4,70,30.01,6.2,ESE,15.0,-,N/A,,Mostly Cloudy,120,2013-03-05 15:00:00
12:00 PM,84.2,75.2,74,30.01,6.2,SE,19.6,-,N/A,,Scattered Clouds,130,2013-03-05 16:00:00
1:00 PM,84.2,75.2,74,29.98,6.2,SE,18.4,-,N/A,,Scattered Clouds,140,2013-03-05 17:00:00
2:00 PM,84,73,63,29.96,14,SE,20.7,,,,Widespread Dust,130,2013-03-05 18:00:00
2:00 PM,84.2,73.4,70,29.95,6.2,SE,20.7,-,N/A,,Partly Cloudy,130,2013-03-05 18:00:00
3:00 PM,84.2,73.4,70,29.95,6.2,SE,18.4,-,N/A,,Scattered Clouds,130,2013-03-05 19:00:00
4:00 PM,84.2,71.6,66,29.95,6.2,ESE,13.8,-,N/A,,Scattered Clouds,110,2013-03-05 20:00:00
5:00 PM,83,72,62,29.96,15,East,11.5,,,,Widespread Dust,100,2013-03-05 21:00:00
5:00 PM,84.2,71.6,66,29.95,6.2,East,11.5,-,N/A,,Mostly Cloudy,100,2013-03-05 21:00:00
6:00 PM,82.4,73.4,74,29.95,6.2,ESE,11.5,-,N/A,,Mostly Cloudy,110,2013-03-05 22:00:00
7:00 PM,80.6,73.4,79,29.98,6.2,East,9.2,-,N/A,,Partly Cloudy,100,2013-03-05 23:00:00
8:00 PM,79,74,79,29.99,14,East,9.2,,,,Widespread Dust,100,2013-03-06 00:00:00
8:00 PM,78.8,73.4,83,29.98,6.2,East,9.2,-,N/A,,Partly Cloudy,100,2013-03-06 00:00:00
9:00 PM,78.8,73.4,83,30.01,6.2,East,5.8,-,N/A,,Partly Cloudy,90,2013-03-06 01:00:00
10:00 PM,77.0,71.6,83,30.01,6.2,East,5.8,-,N/A,,Partly Cloudy,80,2013-03-06 02:00:00
11:00 PM,77,72,81,30.00,14,Calm,Calm,,,,Widespread Dust,,2013-03-06 03:00:00
11:00 PM,77.0,71.6,83,30.01,6.2,Calm,Calm,-,N/A,,Partly Cloudy,0,2013-03-06 03:00:00